createdAt,value
2018-09-17T00:02:05.897Z,4.60
2018-09-17T00:04:33.766Z,4.63
2018-09-17T00:07:01.755Z,4.90
2018-09-17T00:09:29.630Z,4.43
2018-09-17T00:11:57.573Z,4.57
2018-09-17T00:14:25.438Z,4.33
2018-09-17T00:16:53.324Z,5.17
2018-09-17T00:19:21.185Z,4.77
2018-09-17T00:21:49.064Z,5.60
2018-09-17T00:24:16.957Z,5.00
2018-09-17T00:26:44.896Z,4.70
2018-09-17T00:29:12.778Z,4.63
2018-09-17T00:31:40.694Z,4.57
2018-09-17T00:34:08.638Z,5.10
2018-09-17T00:36:36.596Z,5.40
2018-09-17T00:39:07.977Z,5.10
2018-09-17T00:41:35.989Z,5.97
2018-09-17T00:44:04.083Z,5.37
2018-09-17T00:46:32.001Z,6.27
2018-09-17T00:48:59.928Z,4.90
2018-09-17T00:51:28.050Z,6.10
2018-09-17T00:53:55.956Z,5.93
2018-09-17T00:56:23.926Z,5.50
2018-09-17T00:58:51.884Z,5.30
2018-09-17T01:01:19.858Z,5.53
2018-09-17T01:03:47.788Z,5.60
2018-09-17T01:06:15.746Z,6.20
2018-09-17T01:08:43.693Z,5.57
2018-09-17T01:11:11.621Z,5.87
2018-09-17T01:13:39.523Z,6.13
2018-09-17T01:16:07.422Z,5.03
2018-09-17T01:18:35.334Z,5.87
2018-09-17T01:21:03.480Z,5.10
2018-09-17T01:23:31.382Z,5.50
2018-09-17T01:25:59.314Z,5.17
2018-09-17T01:28:27.297Z,5.47
2018-09-17T01:30:55.948Z,4.97
2018-09-17T01:33:23.831Z,5.00
2018-09-17T01:35:51.875Z,4.93
2018-09-17T01:38:19.771Z,4.50
2018-09-17T01:40:47.679Z,4.80
2018-09-17T01:43:15.854Z,4.63
2018-09-17T01:45:43.826Z,4.87
2018-09-17T01:48:11.670Z,4.30
2018-09-17T01:50:39.545Z,4.57
2018-09-17T01:53:14.138Z,4.53
2018-09-17T01:55:42.123Z,4.63
2018-09-17T01:58:10.094Z,5.00
2018-09-17T02:00:38.028Z,5.07
2018-09-17T02:03:05.976Z,5.40
2018-09-17T02:05:33.902Z,5.17
2018-09-17T02:08:01.801Z,4.90
2018-09-17T02:10:29.711Z,5.40
2018-09-17T02:12:57.630Z,4.67
2018-09-17T02:15:25.553Z,5.13
2018-09-17T02:17:53.524Z,5.70
2018-09-17T02:20:21.402Z,6.40
2018-09-17T02:22:49.378Z,6.80
2018-09-17T02:25:17.339Z,7.23
2018-09-17T02:27:45.374Z,7.73
2018-09-17T02:30:13.303Z,8.57
2018-09-17T02:32:41.299Z,8.37
2018-09-17T02:35:09.169Z,8.43
2018-09-17T02:37:37.184Z,7.77
2018-09-17T02:40:09.886Z,8.13
2018-09-17T02:42:37.898Z,8.93
2018-09-17T02:45:06.021Z,7.23
2018-09-17T02:47:33.958Z,8.57
2018-09-17T02:50:01.935Z,8.27
2018-09-17T02:52:29.849Z,8.00
2018-09-17T02:54:57.754Z,7.90
2018-09-17T02:57:25.657Z,9.03
2018-09-17T02:59:53.681Z,7.80
2018-09-17T03:02:21.661Z,7.50
2018-09-17T03:04:49.887Z,7.90
2018-09-17T03:07:17.745Z,7.87
2018-09-17T03:09:45.703Z,8.20
2018-09-17T03:12:13.636Z,7.50
2018-09-17T03:14:41.528Z,7.60
2018-09-17T03:17:11.789Z,7.37
2018-09-17T03:19:40.525Z,8.27
2018-09-17T03:22:08.876Z,8.07
2018-09-17T03:24:36.975Z,7.33
2018-09-17T03:27:05.144Z,8.23
2018-09-17T03:29:32.994Z,8.47
2018-09-17T03:32:01.005Z,7.30
2018-09-17T03:34:28.955Z,7.80
2018-09-17T03:36:56.834Z,9.23
2018-09-17T03:39:24.911Z,8.87
2018-09-17T03:41:52.904Z,9.43
2018-09-17T03:44:20.819Z,9.83
2018-09-17T03:46:48.839Z,9.07
2018-09-17T03:49:16.721Z,9.03
2018-09-17T03:51:44.628Z,9.67
2018-09-17T03:54:12.594Z,7.80
2018-09-17T03:56:40.714Z,8.90
2018-09-17T03:59:08.677Z,9.77
2018-09-17T04:01:37.575Z,8.80
2018-09-17T04:04:05.507Z,8.93
2018-09-17T04:06:33.445Z,9.50
2018-09-17T04:09:01.300Z,9.03
2018-09-17T04:11:29.606Z,9.47
2018-09-17T04:13:57.662Z,9.00
2018-09-17T04:16:25.682Z,8.60
2018-09-17T04:18:53.686Z,8.10
2018-09-17T04:21:21.602Z,8.70
2018-09-17T04:23:49.641Z,9.30
2018-09-17T04:26:17.626Z,9.63
2018-09-17T04:28:46.118Z,10.70
2018-09-17T04:31:14.008Z,10.87
2018-09-17T04:33:43.115Z,11.90
2018-09-17T04:36:11.913Z,11.50
2018-09-17T04:38:39.846Z,13.27
2018-09-17T04:41:08.029Z,13.50
2018-09-17T04:43:36.002Z,13.27
2018-09-17T04:46:03.951Z,12.63
2018-09-17T04:48:31.922Z,12.40
2018-09-17T04:50:59.930Z,11.93
2018-09-17T04:53:27.942Z,11.93
2018-09-17T04:55:56.011Z,11.97
2018-09-17T04:58:23.947Z,11.60
2018-09-17T05:00:52.834Z,10.83
2018-09-17T05:03:20.799Z,10.73
2018-09-17T05:05:48.966Z,9.23
2018-09-17T05:08:16.874Z,9.30
2018-09-17T05:10:45.046Z,8.60
2018-09-17T05:13:13.193Z,8.97
2018-09-17T05:15:41.842Z,8.97
2018-09-17T05:18:09.870Z,9.47
2018-09-17T05:20:37.900Z,9.00
2018-09-17T05:23:06.518Z,8.93
2018-09-17T05:25:34.482Z,14.30
2018-09-17T05:28:02.510Z,11.60
2018-09-17T05:30:30.554Z,11.70
2018-09-17T05:32:58.740Z,10.43
2018-09-17T05:35:26.879Z,9.20
2018-09-17T05:37:54.821Z,9.20
2018-09-17T05:40:22.751Z,8.93
2018-09-17T05:42:50.838Z,9.03
2018-09-17T05:45:18.766Z,8.37
2018-09-17T05:47:46.854Z,7.73
2018-09-17T05:50:15.782Z,9.80
2018-09-17T05:52:43.834Z,9.53
2018-09-17T05:55:11.872Z,9.43
2018-09-17T05:57:39.873Z,9.53
2018-09-17T06:00:07.990Z,9.00
2018-09-17T06:02:35.874Z,8.90
2018-09-17T06:05:03.904Z,9.30
2018-09-17T06:07:32.022Z,9.47
2018-09-17T06:10:00.063Z,9.80
2018-09-17T06:12:28.110Z,9.63
2018-09-17T06:14:56.389Z,10.97
2018-09-17T06:17:24.380Z,10.30
2018-09-17T06:19:52.460Z,9.77
2018-09-17T06:22:20.498Z,10.63
2018-09-17T06:24:48.879Z,11.30
2018-09-17T06:27:17.070Z,11.30
2018-09-17T06:29:45.092Z,12.10
2018-09-17T06:32:13.312Z,11.97
2018-09-17T06:34:42.238Z,12.60
2018-09-17T06:37:10.129Z,12.37
2018-09-17T06:39:38.093Z,12.07
2018-09-17T06:42:06.058Z,11.30
2018-09-17T06:44:34.095Z,12.93
2018-09-17T06:47:02.218Z,13.10
2018-09-17T06:49:30.294Z,12.10
2018-09-17T06:51:58.304Z,13.03
2018-09-17T06:54:26.273Z,12.67
2018-09-17T06:56:55.202Z,12.67
2018-09-17T06:59:23.265Z,12.93
2018-09-17T07:01:51.320Z,11.43
2018-09-17T07:04:19.903Z,12.87
2018-09-17T07:06:48.413Z,12.53
2018-09-17T07:09:16.442Z,12.27
2018-09-17T07:11:45.249Z,14.90
2018-09-17T07:14:13.181Z,12.23
2018-09-17T07:16:41.102Z,11.67
2018-09-17T07:19:09.084Z,10.73
2018-09-17T07:21:37.867Z,11.00
2018-09-17T07:24:06.023Z,10.73
2018-09-17T07:26:33.979Z,10.63
2018-09-17T07:29:02.055Z,10.47
2018-09-17T07:31:30.401Z,9.57
2018-09-17T07:33:58.839Z,10.40
2018-09-17T07:36:26.915Z,10.27
2018-09-17T07:38:54.903Z,12.17
2018-09-17T07:41:23.331Z,9.47
2018-09-17T07:43:51.318Z,9.43
2018-09-17T07:46:19.348Z,9.67
2018-09-17T07:48:49.602Z,10.53
2018-09-17T07:51:17.628Z,10.33
2018-09-17T07:53:45.711Z,10.87
2018-09-17T07:56:13.824Z,10.07
2018-09-17T07:58:42.078Z,8.27
2018-09-17T08:01:10.089Z,10.07
2018-09-17T08:03:38.000Z,10.57
2018-09-17T08:06:05.955Z,10.77
2018-09-17T08:08:34.023Z,8.10
2018-09-17T08:11:02.052Z,10.70
2018-09-17T08:13:30.125Z,12.93
2018-09-17T08:15:58.033Z,10.70
2018-09-17T08:18:26.070Z,11.03
2018-09-17T08:20:54.153Z,13.03
2018-09-17T08:23:22.257Z,11.23
2018-09-17T08:25:50.268Z,12.93
2018-09-17T08:28:18.444Z,11.37
2018-09-17T08:30:46.487Z,14.87
2018-09-17T08:33:14.430Z,10.37
2018-09-17T08:35:42.387Z,12.87
2018-09-17T08:38:10.388Z,14.17
2018-09-17T08:40:39.511Z,14.67
2018-09-17T08:43:08.013Z,16.97
2018-09-17T08:45:36.433Z,17.97
2018-09-17T08:48:05.429Z,17.80
2018-09-17T08:50:33.388Z,15.13
2018-09-17T08:53:01.414Z,16.83
2018-09-17T08:55:34.643Z,17.17
2018-09-17T08:58:08.203Z,14.73
2018-09-17T09:00:42.518Z,14.50
2018-09-17T09:03:16.128Z,15.27
2018-09-17T09:05:48.522Z,15.00
2018-09-17T09:08:16.618Z,16.10
2018-09-17T09:10:46.869Z,14.87
2018-09-17T09:13:24.856Z,16.07
2018-09-17T09:15:52.899Z,14.70
2018-09-17T09:18:20.970Z,14.07
2018-09-17T09:20:48.923Z,13.33
2018-09-17T09:23:16.899Z,13.23
2018-09-17T09:25:45.002Z,13.17
2018-09-17T09:28:13.006Z,13.20
2018-09-17T09:30:41.235Z,12.83
2018-09-17T09:33:09.236Z,12.20
2018-09-17T09:35:37.311Z,13.00
2018-09-17T09:38:05.487Z,13.50
2018-09-17T09:40:33.434Z,12.27
2018-09-17T09:43:01.438Z,11.50
2018-09-17T09:45:29.615Z,11.93
2018-09-17T09:47:57.497Z,13.57
2018-09-17T09:50:27.669Z,12.70
2018-09-17T09:52:55.722Z,12.23
2018-09-17T09:55:23.657Z,12.73
2018-09-17T09:57:51.917Z,9.93
2018-09-17T10:00:25.413Z,12.47
2018-09-17T10:02:59.918Z,11.03
2018-09-17T10:05:28.080Z,10.83
2018-09-17T10:07:56.094Z,10.93
2018-09-17T10:10:30.246Z,11.67
2018-09-17T10:13:03.928Z,10.60
2018-09-17T10:15:35.433Z,11.47
2018-09-17T10:18:09.724Z,11.40
2018-09-17T10:20:37.767Z,11.33
2018-09-17T10:23:06.879Z,11.67
2018-09-17T10:25:34.762Z,11.80
2018-09-17T10:28:02.769Z,11.50
2018-09-17T10:30:30.811Z,12.37
2018-09-17T10:32:59.844Z,12.30
2018-09-17T10:35:27.860Z,12.23
2018-09-17T10:37:56.032Z,11.40
2018-09-17T10:40:24.166Z,12.97
2018-09-17T10:42:52.278Z,12.60
2018-09-17T10:45:20.872Z,12.83
2018-09-17T10:47:48.861Z,12.27
2018-09-17T10:50:16.862Z,12.77
2018-09-17T10:52:44.842Z,15.13
2018-09-17T10:55:12.936Z,11.50
2018-09-17T10:57:41.054Z,12.53
2018-09-17T11:00:09.038Z,12.57
2018-09-17T11:02:37.171Z,11.20
2018-09-17T11:05:05.573Z,11.22
2018-09-17T11:07:34.018Z,11.00
2018-09-17T11:10:02.006Z,11.00
2018-09-17T11:12:29.966Z,11.93
2018-09-17T11:14:57.925Z,12.83
2018-09-17T11:17:26.154Z,13.37
2018-09-17T11:19:54.501Z,14.30
2018-09-17T11:22:22.424Z,12.03
2018-09-17T11:24:50.510Z,13.37
2018-09-17T11:27:18.601Z,12.33
2018-09-17T11:29:46.962Z,14.03
2018-09-17T11:32:14.846Z,12.83
2018-09-17T11:34:42.745Z,12.83
2018-09-17T11:37:10.757Z,14.00
2018-09-17T11:39:38.770Z,12.60
2018-09-17T11:42:07.142Z,11.87
2018-09-17T11:44:35.878Z,13.20
2018-09-17T11:47:03.847Z,11.60
2018-09-17T11:49:31.965Z,11.27
2018-09-17T11:52:00.191Z,12.93
2018-09-17T11:54:28.134Z,11.33
2018-09-17T11:56:56.234Z,11.57
2018-09-17T11:59:24.298Z,14.33
2018-09-17T12:01:57.691Z,13.93
2018-09-17T12:04:30.617Z,13.83
2018-09-17T12:07:03.989Z,13.83
2018-09-17T12:09:32.003Z,13.53
2018-09-17T12:12:00.041Z,11.83
2018-09-17T12:14:28.140Z,12.40
2018-09-17T12:16:56.430Z,12.23
2018-09-17T12:19:24.438Z,12.63
2018-09-17T12:21:52.437Z,12.30
2018-09-17T12:24:20.345Z,12.17
2018-09-17T12:26:48.320Z,12.47
2018-09-17T12:29:16.266Z,11.90
2018-09-17T12:31:44.185Z,12.00
2018-09-17T12:34:12.205Z,11.57
2018-09-17T12:36:41.262Z,11.20
2018-09-17T12:39:12.497Z,11.83
2018-09-17T12:41:40.602Z,10.77
2018-09-17T12:44:09.162Z,10.43
2018-09-17T12:46:37.255Z,11.10
2018-09-17T12:49:06.350Z,10.20
2018-09-17T12:51:34.666Z,10.60
2018-09-17T12:54:03.415Z,9.67
2018-09-17T12:56:31.720Z,11.63
2018-09-17T12:59:00.003Z,9.83
2018-09-17T13:01:28.775Z,10.17
2018-09-17T13:03:57.663Z,11.23
2018-09-17T13:06:26.364Z,10.33
2018-09-17T13:08:55.665Z,10.47
2018-09-17T13:11:23.682Z,10.67
2018-09-17T13:13:51.848Z,11.53
2018-09-17T13:16:22.484Z,10.67
2018-09-17T13:18:51.413Z,10.87
2018-09-17T13:21:21.109Z,11.00
2018-09-17T13:23:49.373Z,11.53
2018-09-17T13:26:17.449Z,10.10
2018-09-17T13:28:46.872Z,10.97
2018-09-17T13:31:15.167Z,10.27
2018-09-17T13:33:43.672Z,10.20
2018-09-17T13:36:11.662Z,10.93
2018-09-17T13:38:39.638Z,10.83
2018-09-17T13:41:10.116Z,9.40
2018-09-17T13:43:38.992Z,10.93
2018-09-17T13:46:07.372Z,9.93
2018-09-17T13:48:36.233Z,11.70
2018-09-17T13:51:04.270Z,12.00
2018-09-17T13:53:32.763Z,10.93
2018-09-17T13:56:03.207Z,9.37
2018-09-17T13:58:31.384Z,10.40
2018-09-17T14:00:59.592Z,10.00
2018-09-17T14:03:28.332Z,9.53
2018-09-17T14:05:57.389Z,9.77
2018-09-17T14:08:25.514Z,9.43
2018-09-17T14:10:54.355Z,9.60
2018-09-17T14:13:22.957Z,9.33
2018-09-17T14:15:56.332Z,9.73
2018-09-17T14:18:24.302Z,9.93
2018-09-17T14:20:52.385Z,10.40
2018-09-17T14:23:21.336Z,10.60
2018-09-17T14:25:49.333Z,9.27
2018-09-17T14:28:17.435Z,9.67
2018-09-17T14:30:45.390Z,8.93
2018-09-17T14:33:19.210Z,9.33
2018-09-17T14:35:47.264Z,8.77
2018-09-17T14:38:15.251Z,8.93
2018-09-17T14:40:43.404Z,8.57
2018-09-17T14:43:11.494Z,9.60
2018-09-17T14:45:40.371Z,9.50
2018-09-17T14:48:08.380Z,8.93
2018-09-17T14:50:36.504Z,9.27
2018-09-17T14:53:04.644Z,10.93
2018-09-17T14:55:32.959Z,10.93
2018-09-17T14:58:01.078Z,10.07
2018-09-17T15:00:29.023Z,10.70
2018-09-17T15:02:57.138Z,10.67
2018-09-17T15:05:25.123Z,11.80
2018-09-17T15:07:53.146Z,11.90
2018-09-17T15:10:21.280Z,11.07
2018-09-17T15:12:49.345Z,12.13
2018-09-17T15:15:17.474Z,11.10
2018-09-17T15:17:45.718Z,10.80
2018-09-17T15:20:13.592Z,10.13
2018-09-17T15:22:41.722Z,9.27
2018-09-17T15:25:09.703Z,9.23
2018-09-17T15:27:38.014Z,7.43
2018-09-17T15:30:08.923Z,8.00
2018-09-17T15:32:37.153Z,9.00
2018-09-17T15:35:06.270Z,7.57
2018-09-17T15:37:35.288Z,6.40
2018-09-17T15:40:04.404Z,6.63
2018-09-17T15:42:33.484Z,6.97
2018-09-17T15:45:02.796Z,6.77
2018-09-17T15:47:32.424Z,7.17
2018-09-17T15:50:14.456Z,6.63
2018-09-17T15:52:45.464Z,6.53
2018-09-17T15:55:13.530Z,7.10
2018-09-17T15:57:42.048Z,7.90
2018-09-17T16:00:10.284Z,7.07
2018-09-17T16:02:38.453Z,7.13
2018-09-17T16:05:06.781Z,7.13
2018-09-17T16:07:35.139Z,7.00
2018-09-17T16:10:03.378Z,7.23
2018-09-17T16:12:31.763Z,7.33
2018-09-17T16:14:59.928Z,7.17
2018-09-17T16:17:28.012Z,7.63
2018-09-17T16:19:57.346Z,7.37
2018-09-17T16:22:25.508Z,8.63
2018-09-17T16:24:53.869Z,7.83
2018-09-17T16:27:22.029Z,7.83
2018-09-17T16:29:50.733Z,8.07
2018-09-17T16:32:19.122Z,8.50
2018-09-17T16:34:47.317Z,7.50
2018-09-17T16:37:15.332Z,7.80
2018-09-17T16:39:43.480Z,7.47
2018-09-17T16:42:14.004Z,7.40
2018-09-17T16:44:43.254Z,7.03
2018-09-17T16:48:04.254Z,6.97
2018-09-17T16:50:32.422Z,7.67
2018-09-17T16:53:00.436Z,8.57
2018-09-17T16:55:28.370Z,7.53
2018-09-17T16:57:56.323Z,7.57
2018-09-17T17:00:24.434Z,7.43
2018-09-17T17:02:53.205Z,7.30
2018-09-17T17:05:21.803Z,7.57
2018-09-17T17:07:49.828Z,7.50
2018-09-17T17:10:18.584Z,7.67
2018-09-17T17:12:46.559Z,8.07
2018-09-17T17:15:14.508Z,7.67
2018-09-17T17:17:43.354Z,7.87
2018-09-17T17:20:19.057Z,7.47
2018-09-17T17:22:47.175Z,7.83
2018-09-17T17:25:15.146Z,7.37
2018-09-17T17:27:43.488Z,7.77
2018-09-17T17:30:11.535Z,8.40
2018-09-17T17:32:39.826Z,8.20
2018-09-17T17:35:07.870Z,7.43
2018-09-17T17:37:36.552Z,7.77
2018-09-17T17:40:05.066Z,7.77
2018-09-17T17:42:33.116Z,8.93
2018-09-17T17:45:01.129Z,9.40
2018-09-17T17:47:29.095Z,10.83
2018-09-17T17:49:57.244Z,9.87
2018-09-17T17:52:25.819Z,9.30
2018-09-17T17:54:54.338Z,8.70
2018-09-17T17:57:22.409Z,8.27
2018-09-17T17:59:50.622Z,9.23
2018-09-17T18:02:18.537Z,10.37
2018-09-17T18:04:46.549Z,11.43
2018-09-17T18:07:14.613Z,11.93
2018-09-17T18:09:42.711Z,11.93
2018-09-17T18:12:10.828Z,12.60
2018-09-17T18:14:48.829Z,12.87
2018-09-17T18:17:17.565Z,13.90
2018-09-17T18:19:46.288Z,14.30
2018-09-17T18:22:17.091Z,14.53
2018-09-17T18:24:45.105Z,15.23
2018-09-17T18:27:13.501Z,15.77
2018-09-17T18:29:41.468Z,15.40
2018-09-17T18:32:09.727Z,14.97
2018-09-17T18:34:38.013Z,14.93
2018-09-17T18:37:06.283Z,16.10
2018-09-17T18:39:34.418Z,15.43
2018-09-17T18:42:02.308Z,15.47
2018-09-17T18:44:30.359Z,16.07
2018-09-17T18:46:58.244Z,15.60
2018-09-17T18:49:26.218Z,15.30
2018-09-17T18:51:54.118Z,16.20
2018-09-17T18:54:22.411Z,15.13
2018-09-17T18:56:51.151Z,16.43
2018-09-17T18:59:19.835Z,16.77
2018-09-17T19:01:51.533Z,17.20
2018-09-17T19:04:19.664Z,17.60
2018-09-17T19:06:47.595Z,17.90
2018-09-17T19:09:16.538Z,18.20
2018-09-17T19:11:44.614Z,19.10
2018-09-17T19:14:17.858Z,16.10
2018-09-17T19:16:47.805Z,14.00
2018-09-17T19:19:15.920Z,13.20
2018-09-17T19:21:49.806Z,14.57
2018-09-17T19:24:17.643Z,13.20
2018-09-17T19:26:45.724Z,14.20
2018-09-17T19:29:16.068Z,13.80
2018-09-17T19:31:44.043Z,14.90
2018-09-17T19:34:12.210Z,14.97
2018-09-17T19:36:40.154Z,16.40
2018-09-17T19:39:14.410Z,16.20
2018-09-17T19:41:42.546Z,15.53
2018-09-17T19:44:11.178Z,16.37
2018-09-17T19:46:39.413Z,17.50
2018-09-17T19:49:07.433Z,18.73
2018-09-17T19:51:40.977Z,18.30
2018-09-17T19:54:09.283Z,18.20
2018-09-17T19:56:37.266Z,17.53
2018-09-17T19:59:10.788Z,17.50
2018-09-17T20:01:38.834Z,16.77
2018-09-17T20:04:12.376Z,17.03
2018-09-17T20:06:40.822Z,15.47
2018-09-17T20:09:09.986Z,15.87
2018-09-17T20:11:39.160Z,14.13
2018-09-17T20:14:07.546Z,16.17
2018-09-17T20:16:35.759Z,15.50
2018-09-17T20:19:03.787Z,15.27
2018-09-17T20:21:31.770Z,16.30
2018-09-17T20:23:59.633Z,15.10
2018-09-17T20:26:27.677Z,15.80
2018-09-17T20:28:57.013Z,15.13
2018-09-17T20:31:25.014Z,13.60
2018-09-17T20:33:53.029Z,14.50
2018-09-17T20:36:21.076Z,14.53
2018-09-17T20:38:49.104Z,13.10
2018-09-17T20:41:17.202Z,13.77
2018-09-17T20:43:45.363Z,13.97
2018-09-17T20:46:13.287Z,13.80
2018-09-17T20:48:41.451Z,15.00
2018-09-17T20:51:09.512Z,15.20
2018-09-17T20:53:37.538Z,13.00
2018-09-17T20:56:05.501Z,14.73
2018-09-17T20:58:33.663Z,15.07
2018-09-17T21:01:01.817Z,14.17
2018-09-17T21:03:29.774Z,14.77
2018-09-17T21:05:57.797Z,15.37
2018-09-17T21:08:25.805Z,14.63
2018-09-17T21:10:53.845Z,15.00
2018-09-17T21:13:21.859Z,14.10
2018-09-17T21:15:49.718Z,14.10
2018-09-17T21:18:18.001Z,12.63
2018-09-17T21:20:45.929Z,14.63
2018-09-17T21:23:13.896Z,13.93
2018-09-17T21:25:42.059Z,14.13
2018-09-17T21:28:10.172Z,13.20
2018-09-17T21:30:39.096Z,12.40
2018-09-17T21:33:07.077Z,14.20
2018-09-17T21:35:34.948Z,13.50
2018-09-17T21:38:40.275Z,12.60
2018-09-17T21:41:08.265Z,12.53
2018-09-17T21:43:36.845Z,13.50
2018-09-17T21:46:05.362Z,12.97
2018-09-17T21:48:35.142Z,13.03
2018-09-17T21:51:04.059Z,12.03
2018-09-17T21:53:32.238Z,12.17
2018-09-17T21:56:00.373Z,11.63
2018-09-17T21:58:29.311Z,12.47
2018-09-17T22:01:02.523Z,11.73
2018-09-17T22:03:34.312Z,13.13
2018-09-17T22:06:03.393Z,12.10
2018-09-17T22:08:31.546Z,11.37
2018-09-17T22:10:59.640Z,11.87
2018-09-17T22:13:28.103Z,13.17
2018-09-17T22:15:56.018Z,11.90
2018-09-17T22:18:24.056Z,12.70
2018-09-17T22:20:52.154Z,12.27
2018-09-17T22:23:20.199Z,11.43
2018-09-17T22:25:49.492Z,11.30
2018-09-17T22:28:17.467Z,12.03
2018-09-17T22:30:45.422Z,11.13
2018-09-17T22:33:13.425Z,9.37
2018-09-17T22:35:41.362Z,10.83
2018-09-17T22:38:09.299Z,10.57
2018-09-17T22:40:37.209Z,11.47
2018-09-17T22:43:05.271Z,11.37
2018-09-17T22:45:33.240Z,11.27
2018-09-17T22:48:01.264Z,11.20
2018-09-17T22:50:29.826Z,12.67
2018-09-17T22:52:57.904Z,10.60
2018-09-17T22:55:25.961Z,11.53
2018-09-17T22:57:53.993Z,11.47
2018-09-17T23:00:21.962Z,10.80
2018-09-17T23:02:50.093Z,10.93
2018-09-17T23:05:19.084Z,10.40
2018-09-17T23:07:47.079Z,11.27
2018-09-17T23:10:16.025Z,11.97
2018-09-17T23:12:44.019Z,10.77
2018-09-17T23:15:12.602Z,10.20
2018-09-17T23:17:40.543Z,11.20
2018-09-17T23:20:08.661Z,10.77
2018-09-17T23:22:37.409Z,10.60
2018-09-17T23:25:05.338Z,10.00
2018-09-17T23:27:33.281Z,10.03
2018-09-17T23:30:01.820Z,9.60
2018-09-17T23:32:29.893Z,10.90
2018-09-17T23:34:57.942Z,10.27
2018-09-17T23:37:26.522Z,10.70
2018-09-17T23:39:54.637Z,9.83
2018-09-17T23:42:23.399Z,9.97
2018-09-17T23:44:51.525Z,9.50
2018-09-17T23:47:19.526Z,9.47
2018-09-17T23:49:48.184Z,7.87
2018-09-17T23:52:16.123Z,8.80
2018-09-17T23:54:44.115Z,8.43
2018-09-17T23:57:12.001Z,8.00
2018-09-17T23:59:40.028Z,8.57
